createdAt,value
2023-03-16T00:03:01.120Z,16.52
2023-03-16T00:13:02.999Z,12.00
2023-03-16T00:23:04.894Z,16.70
2023-03-16T00:33:06.841Z,14.07
2023-03-16T00:43:08.810Z,12.30
2023-03-16T00:53:10.644Z,18.15
2023-03-16T01:03:12.658Z,16.70
2023-03-16T01:13:16.682Z,13.77
2023-03-16T01:23:19.012Z,15.73
2023-03-16T01:33:26.646Z,15.15
2023-03-16T01:43:31.603Z,11.27
2023-03-16T01:53:34.737Z,12.27
2023-03-16T02:03:36.723Z,13.80
2023-03-16T02:13:50.653Z,14.23
2023-03-16T02:23:53.108Z,14.25
2023-03-16T02:33:57.257Z,10.65
2023-03-16T02:44:09.963Z,12.65
2023-03-16T02:54:13.411Z,13.43
2023-03-16T03:04:16.504Z,12.77
2023-03-16T03:14:18.477Z,14.23
2023-03-16T03:24:23.906Z,15.13
2023-03-16T03:34:25.858Z,11.00
2023-03-16T03:44:27.835Z,9.88
2023-03-16T03:54:31.462Z,12.88
2023-03-16T04:04:37.068Z,9.00
2023-03-16T04:14:39.118Z,11.15
2023-03-16T04:24:44.422Z,11.43
2023-03-16T04:34:48.134Z,10.75
2023-03-16T04:44:51.871Z,11.68
2023-03-16T04:54:56.840Z,15.95
2023-03-16T05:04:59.830Z,14.50
2023-03-16T05:15:01.884Z,17.77
2023-03-16T05:25:13.419Z,15.02
2023-03-16T05:35:15.569Z,16.13
2023-03-16T05:45:18.596Z,18.77
2023-03-16T05:55:31.660Z,12.35
2023-03-16T06:05:36.892Z,15.77
2023-03-16T06:15:40.243Z,16.85
2023-03-16T06:25:42.369Z,14.95
2023-03-16T06:35:45.214Z,14.43
2023-03-16T06:45:53.065Z,19.65
2023-03-16T06:55:57.021Z,19.15
2023-03-16T07:06:01.763Z,21.25
2023-03-16T07:16:03.998Z,12.85
2023-03-16T07:26:07.227Z,19.25
2023-03-16T07:36:12.100Z,15.73
2023-03-16T07:46:22.657Z,6.97
2023-03-16T07:56:24.758Z,8.45
2023-03-16T08:06:30.365Z,10.23
2023-03-16T08:16:32.514Z,8.05
2023-03-16T08:26:34.825Z,5.93
2023-03-16T08:36:38.725Z,8.70
2023-03-16T08:46:40.856Z,5.90
2023-03-16T08:56:43.254Z,6.70
2023-03-16T09:06:45.645Z,6.45
2023-03-16T09:16:48.262Z,12.52
2023-03-16T09:26:50.243Z,7.47
2023-03-16T09:36:52.305Z,6.43
2023-03-16T09:46:56.472Z,4.90
2023-03-16T09:57:00.129Z,2.80
2023-03-16T10:07:12.105Z,4.43
2023-03-16T10:17:16.446Z,5.47
2023-03-16T10:27:35.829Z,4.75
2023-03-16T10:37:38.203Z,3.27
2023-03-16T10:47:40.152Z,7.05
2023-03-16T10:57:43.926Z,4.22
2023-03-16T11:08:22.784Z,5.13
2023-03-16T11:18:49.339Z,2.25
2023-03-16T11:29:20.126Z,3.30
2023-03-16T11:39:56.008Z,11.82
2023-03-16T11:50:05.749Z,9.90
2023-03-16T12:00:22.277Z,6.47
2023-03-16T12:10:32.962Z,5.00
2023-03-16T12:21:00.240Z,7.95
2023-03-16T12:31:05.363Z,5.65
2023-03-16T12:41:25.907Z,4.07
2023-03-16T12:51:38.987Z,2.72
2023-03-16T13:01:44.806Z,3.17
2023-03-16T13:11:48.475Z,3.20
2023-03-16T13:22:19.195Z,2.35
2023-03-16T13:32:22.230Z,3.03
2023-03-16T13:42:26.253Z,2.63
2023-03-16T13:52:31.245Z,3.80
2023-03-16T14:02:41.434Z,2.13
2023-03-16T14:12:57.621Z,1.85
2023-03-16T14:23:00.064Z,2.80
2023-03-16T14:33:07.110Z,3.35
2023-03-16T14:43:10.519Z,3.95
2023-03-16T14:53:13.139Z,2.85
2023-03-16T15:13:33.463Z,2.63
2023-03-16T15:23:35.438Z,5.60
2023-03-16T15:33:37.189Z,7.00
2023-03-16T15:43:39.177Z,5.32
2023-03-16T15:53:47.750Z,3.63
2023-03-16T16:03:53.463Z,3.67
2023-03-16T16:13:57.153Z,2.40
2023-03-16T16:23:59.080Z,5.97
2023-03-16T16:34:01.144Z,3.70
2023-03-16T16:44:04.081Z,2.67
2023-03-16T16:54:18.125Z,6.60
2023-03-16T17:04:22.766Z,9.52
2023-03-16T17:14:25.686Z,13.27
2023-03-16T17:24:27.580Z,13.70
2023-03-16T17:34:32.531Z,14.93
2023-03-16T17:44:39.190Z,16.08
2023-03-16T17:54:41.192Z,20.38
2023-03-16T18:04:43.381Z,30.98
2023-03-16T18:14:45.323Z,32.63
2023-03-16T18:24:48.302Z,37.08
2023-03-16T18:34:51.222Z,38.55
2023-03-16T18:44:53.860Z,38.17
2023-03-16T18:54:55.738Z,37.72
2023-03-16T19:05:00.463Z,33.08
2023-03-16T19:15:02.250Z,43.65
2023-03-16T19:25:04.850Z,70.13
2023-03-16T19:35:15.652Z,79.65
2023-03-16T19:45:17.669Z,81.05
2023-03-16T19:55:26.619Z,64.60
2023-03-16T20:05:30.948Z,79.70
2023-03-16T20:15:34.205Z,75.75
2023-03-16T20:25:36.111Z,80.25
2023-03-16T20:35:38.512Z,102.22
2023-03-16T20:45:40.394Z,133.35
2023-03-16T20:55:43.279Z,119.28
2023-03-16T21:05:46.279Z,113.57
2023-03-16T21:15:49.183Z,109.07
2023-03-16T21:25:57.409Z,115.45
2023-03-16T21:36:01.475Z,111.88
2023-03-16T21:46:04.389Z,131.75
2023-03-16T21:56:06.349Z,123.30
2023-03-16T22:06:12.530Z,149.80
2023-03-16T22:16:17.560Z,95.55
2023-03-16T22:26:21.477Z,51.90
2023-03-16T22:36:23.308Z,97.68
2023-03-16T22:46:28.104Z,72.47
2023-03-16T22:56:31.124Z,72.68
2023-03-16T23:06:33.100Z,74.82
2023-03-16T23:16:36.640Z,86.40
2023-03-16T23:26:38.549Z,55.72
2023-03-16T23:36:40.618Z,67.68
2023-03-16T23:46:42.890Z,46.50
2023-03-16T23:56:44.808Z,45.42
